createdAt,value
2023-02-17T00:00:11.334Z,101787.16
2023-02-17T00:02:40.116Z,101786.31
2023-02-17T00:05:08.953Z,101785.41
2023-02-17T00:07:37.319Z,101781.81
2023-02-17T00:10:06.339Z,101791.63
2023-02-17T00:12:35.016Z,101799.56
2023-02-17T00:15:06.384Z,101792.53
2023-02-17T00:17:34.951Z,101795.22
2023-02-17T00:20:03.336Z,101793.44
2023-02-17T00:22:31.817Z,101790.78
2023-02-17T00:25:00.107Z,101794.31
2023-02-17T00:27:28.415Z,101787.16
2023-02-17T00:29:56.827Z,101710.00
2023-02-17T00:32:26.494Z,101707.41
2023-02-17T00:34:56.303Z,101773.81
2023-02-17T00:37:24.745Z,101760.56
2023-02-17T00:39:53.244Z,101800.28
2023-02-17T00:42:21.608Z,101782.66
2023-02-17T00:44:49.924Z,101774.75
2023-02-17T00:47:18.366Z,101768.53
2023-02-17T00:49:50.149Z,101775.66
2023-02-17T00:52:18.476Z,101783.63
2023-02-17T00:54:46.859Z,101782.66
2023-02-17T00:57:15.182Z,101766.00
2023-02-17T00:59:44.081Z,101776.50
2023-02-17T01:02:12.393Z,101778.25
2023-02-17T01:04:40.736Z,101782.66
2023-02-17T01:07:10.478Z,101783.56
2023-02-17T01:09:38.788Z,101787.13
2023-02-17T01:12:07.123Z,101776.44
2023-02-17T01:14:35.603Z,101786.13
2023-02-17T01:17:03.854Z,101779.03
2023-02-17T01:19:32.238Z,101780.78
2023-02-17T01:22:00.510Z,101780.84
2023-02-17T01:24:30.211Z,101759.53
2023-02-17T01:26:58.540Z,101754.25
2023-02-17T01:29:29.068Z,101752.63
2023-02-17T01:31:57.518Z,101755.28
2023-02-17T01:34:28.808Z,101647.03
2023-02-17T01:36:57.084Z,101761.41
2023-02-17T01:39:25.456Z,101756.19
2023-02-17T01:41:55.187Z,101764.97
2023-02-17T01:44:26.120Z,101743.81
2023-02-17T01:46:56.682Z,101744.72
2023-02-17T01:49:37.389Z,101754.38
2023-02-17T01:52:11.446Z,101751.69
2023-02-17T01:54:44.916Z,101742.84
2023-02-17T01:57:17.878Z,101756.97
2023-02-17T01:59:48.157Z,101748.97
2023-02-17T02:02:17.965Z,101736.66
2023-02-17T02:04:50.418Z,101746.31
2023-02-17T02:07:22.603Z,101735.69
2023-02-17T02:09:56.112Z,101718.84
2023-02-17T02:12:28.593Z,101734.63
2023-02-17T02:15:00.924Z,101743.56
2023-02-17T02:17:37.913Z,101732.97
2023-02-17T02:20:47.456Z,101726.69
2023-02-17T02:23:56.140Z,101719.69
2023-02-17T02:27:29.870Z,101732.06
2023-02-17T02:30:52.006Z,101721.41
2023-02-17T02:33:34.668Z,101691.34
2023-02-17T02:36:11.525Z,101719.72
2023-02-17T02:38:45.194Z,101710.94
2023-02-17T02:41:18.855Z,101702.06
2023-02-17T02:43:49.061Z,101704.75
2023-02-17T02:46:17.607Z,101696.03
2023-02-17T02:48:48.477Z,101696.91
2023-02-17T02:51:33.827Z,101694.25
2023-02-17T02:54:35.584Z,101693.47
2023-02-17T02:57:21.894Z,101689.06
2023-02-17T03:00:05.759Z,101675.78
2023-02-17T03:02:45.924Z,101673.22
2023-02-17T03:05:23.624Z,101662.66
2023-02-17T03:07:59.820Z,101648.47
2023-02-17T03:10:28.602Z,101650.28
2023-02-17T03:12:57.609Z,101654.69
2023-02-17T03:15:31.421Z,101641.38
2023-02-17T03:18:02.853Z,101661.75
2023-02-17T03:20:37.286Z,101658.31
2023-02-17T03:23:07.298Z,101640.50
2023-02-17T03:25:36.552Z,101527.31
2023-02-17T03:28:05.829Z,101639.75
2023-02-17T03:30:34.355Z,101652.13
2023-02-17T03:33:02.878Z,101647.69
2023-02-17T03:35:32.789Z,101654.78
2023-02-17T03:38:01.057Z,101668.91
2023-02-17T03:40:29.312Z,101655.63
2023-02-17T03:42:58.556Z,101662.72
2023-02-17T03:45:27.214Z,101665.31
2023-02-17T03:47:55.638Z,101665.31
2023-02-17T03:50:24.158Z,101409.47
2023-02-17T03:52:53.821Z,101664.47
2023-02-17T03:55:22.113Z,101662.75
2023-02-17T03:57:50.453Z,101643.25
2023-02-17T04:00:19.513Z,101665.41
2023-02-17T04:02:47.887Z,101666.25
2023-02-17T04:05:16.343Z,101657.47
2023-02-17T04:07:44.656Z,101659.25
2023-02-17T04:10:14.444Z,101665.44
2023-02-17T04:12:42.900Z,101674.28
2023-02-17T04:15:11.482Z,101663.69
2023-02-17T04:17:39.943Z,101568.91
2023-02-17T04:20:10.069Z,101667.25
2023-02-17T04:22:38.421Z,101654.00
2023-02-17T04:25:07.400Z,101670.75
2023-02-17T04:27:37.125Z,101661.91
2023-02-17T04:30:07.395Z,101649.59
2023-02-17T04:32:35.880Z,101654.84
2023-02-17T04:35:04.418Z,101636.31
2023-02-17T04:37:32.724Z,101626.63
2023-02-17T04:40:01.070Z,101626.63
2023-02-17T04:42:29.440Z,101625.75
2023-02-17T04:44:59.181Z,101621.34
2023-02-17T04:47:28.241Z,101606.31
2023-02-17T04:49:56.824Z,101629.28
2023-02-17T04:52:25.244Z,101649.56
2023-02-17T04:54:53.634Z,101577.84
2023-02-17T04:57:22.077Z,101664.59
2023-02-17T04:59:50.508Z,101539.78
2023-02-17T05:02:20.244Z,101648.72
2023-02-17T05:04:48.858Z,101646.97
2023-02-17T05:07:17.187Z,101646.97
2023-02-17T05:09:45.534Z,101652.25
2023-02-17T05:12:14.137Z,101649.66
2023-02-17T05:14:42.561Z,101637.31
2023-02-17T05:17:10.978Z,101645.16
2023-02-17T05:19:40.743Z,101655.84
2023-02-17T05:22:09.130Z,101642.59
2023-02-17T05:24:38.938Z,101640.88
2023-02-17T05:27:07.648Z,101606.34
2023-02-17T05:29:36.169Z,101620.59
2023-02-17T05:32:04.697Z,101619.69
2023-02-17T05:34:33.765Z,101611.75
2023-02-17T05:37:03.823Z,101606.44
2023-02-17T05:39:32.482Z,101585.19
2023-02-17T05:42:00.895Z,101601.13
2023-02-17T05:44:29.619Z,101578.19
2023-02-17T05:46:58.057Z,101593.22
2023-02-17T05:49:26.586Z,101594.97
2023-02-17T05:51:55.020Z,101588.81
2023-02-17T05:54:24.903Z,101587.03
2023-02-17T05:56:53.251Z,101577.28
2023-02-17T05:59:21.662Z,101589.66
2023-02-17T06:01:50.099Z,101579.94
2023-02-17T06:04:18.524Z,101583.47
2023-02-17T06:06:46.915Z,101564.94
2023-02-17T06:09:15.438Z,101574.66
2023-02-17T06:11:45.177Z,101578.19
2023-02-17T06:14:13.560Z,101572.00
2023-02-17T06:16:41.889Z,101579.91
2023-02-17T06:19:10.245Z,101571.97
2023-02-17T06:21:38.679Z,101585.19
2023-02-17T06:24:07.783Z,101577.25
2023-02-17T06:26:36.131Z,101575.53
2023-02-17T06:29:07.146Z,101587.84
2023-02-17T06:31:35.596Z,101595.81
2023-02-17T06:34:06.486Z,101556.91
2023-02-17T06:36:35.283Z,101579.00
2023-02-17T06:39:03.662Z,101556.06
2023-02-17T06:41:31.985Z,101578.09
2023-02-17T06:44:00.341Z,101590.50
2023-02-17T06:46:30.078Z,101564.88
2023-02-17T06:49:00.117Z,101470.19
2023-02-17T06:51:28.666Z,101581.66
2023-02-17T06:53:57.300Z,101582.56
2023-02-17T06:56:25.845Z,101574.59
2023-02-17T06:58:54.262Z,101582.53
2023-02-17T07:01:26.254Z,101564.00
2023-02-17T07:03:56.532Z,101567.53
2023-02-17T07:06:26.082Z,101550.69
2023-02-17T07:08:54.893Z,101554.19
2023-02-17T07:11:24.475Z,101608.13
2023-02-17T07:13:52.788Z,101608.13
2023-02-17T07:16:21.166Z,101598.41
2023-02-17T07:18:49.548Z,101587.78
2023-02-17T07:21:19.282Z,101591.28
2023-02-17T07:23:48.539Z,101593.94
2023-02-17T07:26:17.022Z,101564.75
2023-02-17T07:28:45.649Z,101575.38
2023-02-17T07:31:16.349Z,101609.84
2023-02-17T07:33:48.059Z,101582.44
2023-02-17T07:36:18.837Z,101599.25
2023-02-17T07:38:47.321Z,101550.63
2023-02-17T07:41:17.848Z,101592.19
2023-02-17T07:43:47.519Z,101607.16
2023-02-17T07:46:18.386Z,101531.13
2023-02-17T07:48:47.546Z,101600.13
2023-02-17T07:51:20.181Z,101597.47
2023-02-17T07:53:49.218Z,101601.91
2023-02-17T07:56:21.465Z,101616.84
2023-02-17T07:58:50.621Z,101605.41
2023-02-17T08:01:21.662Z,101596.53
2023-02-17T08:03:51.565Z,101601.00
2023-02-17T08:06:23.897Z,101611.59
2023-02-17T08:09:11.588Z,101637.19
2023-02-17T08:11:59.030Z,101616.00
2023-02-17T08:14:29.605Z,101646.03
2023-02-17T08:16:58.823Z,101631.06
2023-02-17T08:19:39.519Z,101628.44
2023-02-17T08:22:16.492Z,101634.63
2023-02-17T08:24:45.268Z,101624.91
2023-02-17T08:27:14.030Z,101622.22
2023-02-17T08:29:43.152Z,101624.03
2023-02-17T08:32:12.058Z,101614.28
2023-02-17T08:34:40.469Z,101601.91
2023-02-17T08:37:10.139Z,101633.72
2023-02-17T08:39:39.897Z,101619.66
2023-02-17T08:42:08.578Z,101623.16
2023-02-17T08:44:38.252Z,101612.53
2023-02-17T08:47:07.420Z,101648.81
2023-02-17T08:49:35.938Z,101642.63
2023-02-17T08:52:05.387Z,101645.31
2023-02-17T08:54:34.048Z,101645.28
2023-02-17T08:57:03.811Z,101627.66
2023-02-17T08:59:32.740Z,101640.03
2023-02-17T09:02:01.341Z,101627.63
2023-02-17T09:04:30.108Z,101621.47
2023-02-17T09:06:59.396Z,101635.63
2023-02-17T09:09:28.581Z,101629.44
2023-02-17T09:11:58.994Z,101635.63
2023-02-17T09:14:29.643Z,101675.38
2023-02-17T09:16:58.279Z,101655.97
2023-02-17T09:19:27.614Z,101673.63
2023-02-17T09:21:56.871Z,101661.22
2023-02-17T09:24:26.889Z,101664.81
2023-02-17T09:26:55.460Z,101655.97
2023-02-17T09:29:23.870Z,101647.19
2023-02-17T09:31:53.922Z,101639.25
2023-02-17T09:34:22.548Z,101658.75
2023-02-17T09:36:51.281Z,101620.63
2023-02-17T09:39:19.719Z,101642.78
2023-02-17T09:41:52.380Z,101667.53
2023-02-17T09:44:26.454Z,101645.41
2023-02-17T09:47:06.880Z,101655.19
2023-02-17T09:49:41.286Z,101664.03
2023-02-17T09:52:15.954Z,101666.63
2023-02-17T09:54:59.092Z,101685.25
2023-02-17T09:57:32.681Z,101687.06
2023-02-17T10:00:09.088Z,101693.19
2023-02-17T10:02:50.832Z,101686.16
2023-02-17T10:05:24.596Z,101710.06
2023-02-17T10:07:58.513Z,101712.69
2023-02-17T10:10:32.557Z,101718.00
2023-02-17T10:13:03.770Z,101687.94
2023-02-17T10:15:37.728Z,101618.78
2023-02-17T10:18:14.569Z,101703.00
2023-02-17T10:20:48.809Z,101707.41
2023-02-17T10:23:20.924Z,101714.47
2023-02-17T10:26:07.508Z,101716.25
2023-02-17T10:28:51.953Z,101718.94
2023-02-17T10:31:38.631Z,101705.63
2023-02-17T10:34:21.677Z,101735.72
2023-02-17T10:36:58.811Z,101721.56
2023-02-17T10:39:45.497Z,101725.09
2023-02-17T10:42:22.492Z,101748.09
2023-02-17T10:44:52.546Z,101724.22
2023-02-17T10:47:22.499Z,101720.66
2023-02-17T10:49:55.207Z,101613.41
2023-02-17T10:52:26.920Z,101721.38
2023-02-17T10:55:01.940Z,101747.09
2023-02-17T10:57:37.145Z,101740.94
2023-02-17T11:00:09.114Z,101743.59
2023-02-17T11:02:43.716Z,101769.19
2023-02-17T11:05:26.262Z,101772.75
2023-02-17T11:08:01.894Z,101762.97
2023-02-17T11:10:33.884Z,101750.56
2023-02-17T11:13:03.659Z,101731.94
2023-02-17T11:15:38.271Z,101732.94
2023-02-17T11:18:17.639Z,101754.97
2023-02-17T11:20:48.129Z,101761.25
2023-02-17T11:23:25.239Z,101722.25
2023-02-17T11:26:02.762Z,101753.19
2023-02-17T11:28:31.391Z,101743.44
2023-02-17T11:31:03.023Z,101746.13
2023-02-17T11:33:39.718Z,101762.88
2023-02-17T11:36:22.286Z,101746.91
2023-02-17T11:38:50.614Z,101746.13
2023-02-17T11:41:19.361Z,101757.69
2023-02-17T11:43:57.137Z,101751.44
2023-02-17T11:46:33.463Z,101781.44
2023-02-17T11:49:27.197Z,101779.72
2023-02-17T11:52:13.380Z,101787.66
2023-02-17T11:54:55.202Z,101761.94
2023-02-17T11:57:38.222Z,101774.38
2023-02-17T12:00:19.756Z,101770.94
2023-02-17T12:03:25.365Z,101758.56
2023-02-17T12:06:09.490Z,101699.09
2023-02-17T12:08:57.228Z,101746.22
2023-02-17T12:11:37.064Z,101773.66
2023-02-17T12:14:23.324Z,101775.47
2023-02-17T12:17:01.143Z,101796.69
2023-02-17T12:19:42.821Z,101788.69
2023-02-17T12:22:20.182Z,101814.41
2023-02-17T12:25:10.132Z,101811.75
2023-02-17T12:27:51.476Z,101828.63
2023-02-17T12:30:32.198Z,101826.78
2023-02-17T12:33:17.059Z,101822.34
2023-02-17T12:35:53.102Z,101823.22
2023-02-17T12:38:28.231Z,101814.25
2023-02-17T12:41:06.115Z,101831.13
2023-02-17T12:43:42.211Z,101818.69
2023-02-17T12:46:16.304Z,101831.94
2023-02-17T12:48:53.224Z,101819.38
2023-02-17T12:51:28.300Z,101854.78
2023-02-17T12:54:01.467Z,101868.16
2023-02-17T12:56:52.270Z,101864.59
2023-02-17T12:59:24.164Z,101859.31
2023-02-17T13:02:01.703Z,101851.34
2023-02-17T13:04:31.491Z,101833.66
2023-02-17T13:07:11.830Z,101813.34
2023-02-17T13:09:42.814Z,101824.72
2023-02-17T13:12:40.873Z,101751.16
2023-02-17T13:15:30.233Z,101851.34
2023-02-17T13:18:04.455Z,101858.41
2023-02-17T13:20:58.124Z,101867.31
2023-02-17T13:23:38.680Z,101862.06
2023-02-17T13:26:31.062Z,101734.34
2023-02-17T13:29:34.357Z,101859.34
2023-02-17T13:32:06.404Z,101843.44
2023-02-17T13:34:38.574Z,101825.75
2023-02-17T13:37:22.573Z,101854.09
2023-02-17T13:39:51.104Z,101850.59
2023-02-17T13:42:39.817Z,101860.38
2023-02-17T13:45:24.602Z,101878.09
2023-02-17T13:47:55.685Z,101881.66
2023-02-17T13:50:31.106Z,101889.63
2023-02-17T13:52:59.905Z,101864.84
2023-02-17T13:55:28.522Z,101833.00
2023-02-17T13:57:59.788Z,101802.78
2023-02-17T14:00:32.018Z,101724.81
2023-02-17T14:03:21.715Z,101834.75
2023-02-17T14:05:52.128Z,101843.56
2023-02-17T14:08:29.171Z,101847.97
2023-02-17T14:10:58.798Z,101836.47
2023-02-17T14:13:27.401Z,101831.22
2023-02-17T14:15:59.789Z,101863.06
2023-02-17T14:18:35.931Z,101856.00
2023-02-17T14:21:08.912Z,101862.22
2023-02-17T14:23:47.606Z,101858.69
2023-02-17T14:26:29.182Z,101854.22
2023-02-17T14:29:00.234Z,101871.91
2023-02-17T14:31:30.239Z,101862.16
2023-02-17T14:34:02.239Z,101865.75
2023-02-17T14:36:34.837Z,101851.59
2023-02-17T14:39:06.562Z,101854.25
2023-02-17T14:41:35.742Z,101853.34
2023-02-17T14:44:06.062Z,101864.00
2023-02-17T14:46:36.794Z,101868.41
2023-02-17T14:49:05.376Z,101882.63
2023-02-17T14:51:36.730Z,101857.81
2023-02-17T14:54:13.074Z,101859.66
2023-02-17T14:56:46.691Z,101870.22
2023-02-17T14:59:15.031Z,101879.97
2023-02-17T15:01:44.784Z,101858.72
2023-02-17T15:04:13.515Z,101890.59
2023-02-17T15:06:44.556Z,101895.94
2023-02-17T15:09:16.483Z,101896.81
2023-02-17T15:11:48.859Z,101902.19
2023-02-17T15:14:20.150Z,101898.69
2023-02-17T15:16:50.325Z,101903.06
2023-02-17T15:19:19.127Z,101883.59
2023-02-17T15:21:50.077Z,101872.13
2023-02-17T15:24:22.224Z,101892.47
2023-02-17T15:26:50.714Z,101900.41
2023-02-17T15:29:21.493Z,101911.94
2023-02-17T15:31:53.490Z,101886.25
2023-02-17T15:34:26.810Z,101812.66
2023-02-17T15:36:55.330Z,101916.34
2023-02-17T15:39:23.776Z,101911.00
2023-02-17T15:41:55.217Z,101912.75
2023-02-17T15:44:28.119Z,101909.16
2023-02-17T15:46:57.944Z,101923.25
2023-02-17T15:49:26.282Z,101933.91
2023-02-17T15:51:54.735Z,101937.41
2023-02-17T15:54:23.085Z,101922.41
2023-02-17T15:56:53.682Z,101929.44
2023-02-17T15:59:25.920Z,101932.09
2023-02-17T16:01:56.068Z,101938.31
2023-02-17T16:04:25.887Z,101949.78
2023-02-17T16:06:54.215Z,101947.16
2023-02-17T16:09:22.553Z,101963.09
2023-02-17T16:11:53.423Z,101923.16
2023-02-17T16:14:26.558Z,101955.16
2023-02-17T16:16:55.301Z,101952.47
2023-02-17T16:19:25.090Z,101945.38
2023-02-17T16:21:53.568Z,101961.25
2023-02-17T16:24:22.037Z,101951.50
2023-02-17T16:26:50.675Z,101962.09
2023-02-17T16:29:22.143Z,101984.22
2023-02-17T16:31:50.995Z,101948.75
2023-02-17T16:34:21.891Z,101874.22
2023-02-17T16:36:55.217Z,101975.44
2023-02-17T16:39:24.476Z,101974.50
2023-02-17T16:41:53.032Z,101982.56
2023-02-17T16:44:24.420Z,101973.69
2023-02-17T16:46:55.022Z,101955.09
2023-02-17T16:49:32.495Z,101989.59
2023-02-17T16:52:03.325Z,101999.28
2023-02-17T16:54:34.426Z,102002.88
2023-02-17T16:57:04.228Z,101981.50
2023-02-17T16:59:32.573Z,101991.34
2023-02-17T17:02:01.576Z,102000.16
2023-02-17T17:04:30.260Z,101993.97
2023-02-17T17:06:58.651Z,102001.03
2023-02-17T17:09:28.773Z,102001.06
2023-02-17T17:11:57.184Z,102004.56
2023-02-17T17:14:25.616Z,101997.53
2023-02-17T17:16:59.129Z,101998.31
2023-02-17T17:19:27.838Z,102013.38
2023-02-17T17:21:56.204Z,102006.31
2023-02-17T17:24:24.593Z,102015.13
2023-02-17T17:26:55.850Z,102025.75
2023-02-17T17:29:24.246Z,102030.16
2023-02-17T17:31:52.654Z,102035.50
2023-02-17T17:34:21.064Z,102038.13
2023-02-17T17:36:49.689Z,102054.06
2023-02-17T17:39:21.431Z,102059.34
2023-02-17T17:41:50.994Z,102048.78
2023-02-17T17:44:21.876Z,102070.84
2023-02-17T17:46:50.258Z,102069.09
2023-02-17T17:49:18.922Z,102062.88
2023-02-17T17:51:47.662Z,102059.25
2023-02-17T17:54:16.060Z,102061.97
2023-02-17T17:56:44.899Z,101934.09
2023-02-17T17:59:14.678Z,102063.78
2023-02-17T18:01:45.881Z,102069.03
2023-02-17T18:04:14.814Z,102067.28
2023-02-17T18:06:45.825Z,102073.44
2023-02-17T18:09:31.317Z,102077.03
2023-02-17T18:12:04.635Z,102094.78
2023-02-17T18:14:33.344Z,102076.16
2023-02-17T18:17:03.116Z,102092.19
2023-02-17T18:19:32.962Z,102088.56
2023-02-17T18:22:01.463Z,102071.72
2023-02-17T18:24:30.071Z,102084.16
2023-02-17T18:26:59.033Z,102082.34
2023-02-17T18:29:27.762Z,102092.97
2023-02-17T18:31:57.632Z,102099.22
2023-02-17T18:34:27.646Z,102089.47
2023-02-17T18:36:56.260Z,102085.97
2023-02-17T18:39:24.869Z,102094.81
2023-02-17T18:41:53.228Z,102096.50
2023-02-17T18:44:21.580Z,102088.63
2023-02-17T18:46:50.100Z,102103.63
2023-02-17T18:49:18.496Z,102108.94
2023-02-17T18:51:48.195Z,102116.94
2023-02-17T18:54:16.853Z,102120.56
2023-02-17T18:56:45.222Z,102126.78
2023-02-17T18:59:13.639Z,102141.81
2023-02-17T19:01:43.256Z,102153.38
2023-02-17T19:04:12.997Z,102162.19
2023-02-17T19:06:41.981Z,102163.25
2023-02-17T19:09:11.962Z,102059.31
2023-02-17T19:11:40.430Z,102155.13
2023-02-17T19:14:08.744Z,102137.47
2023-02-17T19:16:39.122Z,102162.09
2023-02-17T19:19:07.537Z,102181.66
2023-02-17T19:21:36.482Z,102163.09
2023-02-17T19:24:05.620Z,102179.13
2023-02-17T19:26:37.488Z,102167.41
2023-02-17T19:29:06.105Z,102155.91
2023-02-17T19:31:35.066Z,102166.53
2023-02-17T19:34:03.503Z,102177.97
2023-02-17T19:36:32.164Z,102193.84
2023-02-17T19:39:00.548Z,102200.06
2023-02-17T19:41:28.886Z,102207.78
2023-02-17T19:43:58.740Z,102193.72
2023-02-17T19:46:27.147Z,102203.38
2023-02-17T19:48:55.560Z,102205.19
2023-02-17T19:51:24.374Z,102204.16
2023-02-17T19:53:52.744Z,102206.84
2023-02-17T19:56:24.007Z,102174.06
2023-02-17T19:58:53.107Z,102195.47
2023-02-17T20:01:24.744Z,102198.91
2023-02-17T20:03:54.577Z,102179.28
2023-02-17T20:06:25.627Z,102211.28
2023-02-17T20:09:00.100Z,102213.09
2023-02-17T20:11:29.901Z,102082.34
2023-02-17T20:14:00.554Z,102207.88
2023-02-17T20:16:30.958Z,102103.72
2023-02-17T20:19:02.722Z,102219.28
2023-02-17T20:21:33.860Z,102127.56
2023-02-17T20:24:03.052Z,102205.19
2023-02-17T20:26:34.836Z,102196.38
2023-02-17T20:29:03.282Z,102200.03
2023-02-17T20:31:33.283Z,102200.13
2023-02-17T20:34:04.457Z,102186.78
2023-02-17T20:36:34.356Z,102172.53
2023-02-17T20:39:03.044Z,102206.41
2023-02-17T20:41:31.528Z,102210.88
2023-02-17T20:44:02.760Z,102218.88
2023-02-17T20:46:34.440Z,102218.09
2023-02-17T20:49:02.874Z,102213.75
2023-02-17T20:51:31.242Z,102206.69
2023-02-17T20:53:59.760Z,102219.97
2023-02-17T20:56:35.397Z,102216.47
2023-02-17T20:59:04.012Z,102222.63
2023-02-17T21:01:34.085Z,102216.47
2023-02-17T21:04:02.628Z,102211.09
2023-02-17T21:06:34.995Z,102210.16
2023-02-17T21:09:07.220Z,102198.66
2023-02-17T21:11:35.635Z,102195.91
2023-02-17T21:14:04.007Z,102195.97
2023-02-17T21:16:36.957Z,102204.88
2023-02-17T21:19:06.074Z,102192.47
2023-02-17T21:21:34.541Z,102196.97
2023-02-17T21:24:02.932Z,102197.94
2023-02-17T21:26:31.445Z,102187.25
2023-02-17T21:28:59.898Z,102204.06
2023-02-17T21:31:28.834Z,102191.59
2023-02-17T21:34:00.434Z,102198.72
2023-02-17T21:36:29.592Z,102201.50
2023-02-17T21:38:59.062Z,102200.66
2023-02-17T21:41:30.447Z,102198.03
2023-02-17T21:44:15.931Z,102197.94
2023-02-17T21:46:45.209Z,102211.31
2023-02-17T21:49:15.640Z,102203.34
2023-02-17T21:51:44.488Z,102200.69
2023-02-17T21:54:13.351Z,102208.66
2023-02-17T21:56:42.022Z,102074.56
2023-02-17T21:59:10.453Z,102197.25
2023-02-17T22:01:38.783Z,102166.13
2023-02-17T22:04:07.261Z,102185.78
2023-02-17T22:06:40.633Z,102191.13
2023-02-17T22:09:12.239Z,102192.91
2023-02-17T22:11:42.910Z,102198.16
2023-02-17T22:14:14.416Z,102191.84
2023-02-17T22:16:43.012Z,102189.22
2023-02-17T22:19:16.729Z,102190.06
2023-02-17T22:21:47.382Z,102123.44
2023-02-17T22:24:16.171Z,102158.16
2023-02-17T22:26:44.606Z,102183.91
2023-02-17T22:29:13.062Z,102171.38
2023-02-17T22:31:41.742Z,102186.41
2023-02-17T22:34:11.215Z,102181.91
2023-02-17T22:36:39.836Z,102175.69
2023-02-17T22:39:10.627Z,102167.53
2023-02-17T22:41:41.872Z,102179.19
2023-02-17T22:44:10.355Z,102183.59
2023-02-17T22:46:38.721Z,102180.94
2023-02-17T22:49:07.175Z,102179.19
2023-02-17T22:51:38.955Z,102182.63
2023-02-17T22:54:09.749Z,102176.38
2023-02-17T22:56:38.364Z,102173.75
2023-02-17T22:59:07.682Z,102184.38
2023-02-17T23:01:37.952Z,102181.72
2023-02-17T23:04:07.315Z,102170.03
2023-02-17T23:06:38.388Z,102165.56
2023-02-17T23:09:09.540Z,102173.50
2023-02-17T23:11:54.785Z,102156.69
2023-02-17T23:14:27.499Z,102149.56
2023-02-17T23:17:00.742Z,102163.78
2023-02-17T23:19:30.059Z,102154.88
2023-02-17T23:22:02.109Z,102160.25
2023-02-17T23:24:32.236Z,102153.03
2023-02-17T23:27:01.648Z,102123.72
2023-02-17T23:29:31.343Z,102132.63
2023-02-17T23:32:00.232Z,102126.41
2023-02-17T23:34:29.538Z,102133.56
2023-02-17T23:36:58.387Z,102127.31
2023-02-17T23:39:27.165Z,102131.78
2023-02-17T23:41:57.142Z,102120.34
2023-02-17T23:44:25.580Z,102127.50
2023-02-17T23:46:54.041Z,102116.84
2023-02-17T23:49:22.496Z,102121.22
2023-02-17T23:51:50.873Z,102121.28
2023-02-17T23:54:19.316Z,102111.53
2023-02-17T23:56:47.736Z,102120.38
2023-02-17T23:59:17.497Z,102122.97
